createdAt,value
2018-11-03T00:02:30.819Z,102537.78
2018-11-03T00:05:18.493Z,102543.30
2018-11-03T00:07:47.874Z,102537.95
2018-11-03T00:10:17.001Z,102533.65
2018-11-03T00:12:46.093Z,102527.41
2018-11-03T00:15:15.165Z,102526.34
2018-11-03T00:17:44.205Z,102519.56
2018-11-03T00:20:13.302Z,102516.09
2018-11-03T00:22:42.408Z,102522.14
2018-11-03T00:25:11.644Z,102512.13
2018-11-03T00:27:40.682Z,102507.30
2018-11-03T00:30:12.079Z,102503.81
2018-11-03T00:32:41.531Z,102499.55
2018-11-03T00:35:10.880Z,102500.45
2018-11-03T00:37:39.974Z,102495.30
2018-11-03T00:40:12.340Z,102484.02
2018-11-03T00:42:41.745Z,102476.91
2018-11-03T00:45:12.579Z,102484.02
2018-11-03T00:47:43.186Z,102471.05
2018-11-03T00:50:13.754Z,102468.11
2018-11-03T00:52:43.293Z,102475.50
2018-11-03T00:55:13.069Z,102471.20
2018-11-03T00:57:42.643Z,102462.92
2018-11-03T01:00:17.380Z,102463.81
2018-11-03T01:02:47.713Z,102462.31
2018-11-03T01:05:16.829Z,102458.81
2018-11-03T01:07:46.331Z,102456.94
2018-11-03T01:10:15.751Z,102450.23
2018-11-03T01:12:45.709Z,102446.83
2018-11-03T01:15:16.023Z,102446.92
2018-11-03T01:17:45.254Z,102442.84
2018-11-03T01:20:15.420Z,102439.28
2018-11-03T01:22:44.584Z,102442.47
2018-11-03T01:25:13.664Z,102439.98
2018-11-03T01:27:42.757Z,102431.52
2018-11-03T01:30:15.745Z,102430.16
2018-11-03T01:32:44.908Z,102429.63
2018-11-03T01:35:14.038Z,102427.76
2018-11-03T01:37:43.100Z,102421.48
2018-11-03T01:40:13.455Z,102426.41
2018-11-03T01:42:42.559Z,102426.45
2018-11-03T01:45:11.665Z,102428.50
2018-11-03T01:47:40.793Z,102423.50
2018-11-03T01:50:11.779Z,102410.46
2018-11-03T01:52:41.392Z,102407.41
2018-11-03T01:55:10.431Z,102403.70
2018-11-03T01:57:39.655Z,102396.52
2018-11-03T02:00:09.766Z,102388.73
2018-11-03T02:02:39.007Z,102388.61
2018-11-03T02:05:08.692Z,102386.27
2018-11-03T02:07:37.776Z,102380.06
2018-11-03T02:10:08.401Z,102377.63
2018-11-03T02:12:37.382Z,102375.98
2018-11-03T02:15:06.549Z,102360.20
2018-11-03T02:17:35.657Z,102354.00
2018-11-03T02:20:05.123Z,102357.61
2018-11-03T02:22:34.152Z,102352.41
2018-11-03T02:25:03.196Z,102352.48
2018-11-03T02:27:32.267Z,102353.09
2018-11-03T02:30:01.360Z,102351.17
2018-11-03T02:32:30.502Z,102350.97
2018-11-03T02:34:59.508Z,102343.69
2018-11-03T02:37:28.625Z,102343.45
2018-11-03T02:39:57.666Z,102340.73
2018-11-03T02:42:26.728Z,102339.61
2018-11-03T02:44:55.833Z,102328.22
2018-11-03T02:47:25.814Z,102323.38
2018-11-03T02:49:54.854Z,102328.86
2018-11-03T02:52:23.949Z,102321.54
2018-11-03T02:54:52.940Z,102318.58
2018-11-03T02:57:22.078Z,102312.55
2018-11-03T02:59:51.119Z,102303.02
2018-11-03T03:02:20.123Z,102310.14
2018-11-03T03:04:49.244Z,102307.42
2018-11-03T03:07:18.319Z,102298.42
2018-11-03T03:09:48.210Z,102293.22
2018-11-03T03:12:17.410Z,102301.07
2018-11-03T03:14:46.548Z,102303.50
2018-11-03T03:17:15.689Z,102305.11
2018-11-03T03:19:44.691Z,102303.74
2018-11-03T03:22:13.687Z,102299.91
2018-11-03T03:24:42.697Z,102299.06
2018-11-03T03:27:11.777Z,102294.98
2018-11-03T03:29:40.899Z,102290.31
2018-11-03T03:32:09.987Z,102293.27
2018-11-03T03:34:39.068Z,102298.70
2018-11-03T03:37:08.174Z,102293.39
2018-11-03T03:39:37.251Z,102297.23
2018-11-03T03:42:06.889Z,102295.34
2018-11-03T03:44:35.909Z,102290.51
2018-11-03T03:47:04.921Z,102294.87
2018-11-03T03:49:33.990Z,102292.46
2018-11-03T03:52:03.142Z,102290.19
2018-11-03T03:54:32.176Z,102285.23
2018-11-03T03:57:01.290Z,102277.91
2018-11-03T03:59:30.404Z,102277.31
2018-11-03T04:01:59.484Z,102271.12
2018-11-03T04:04:28.508Z,102270.80
2018-11-03T04:06:57.612Z,102269.09
2018-11-03T04:09:26.629Z,102270.40
2018-11-03T04:11:55.759Z,102266.25
2018-11-03T04:14:24.758Z,102248.86
2018-11-03T04:16:54.499Z,102242.97
2018-11-03T04:19:23.528Z,102250.05
2018-11-03T04:21:52.576Z,102236.45
2018-11-03T04:24:21.602Z,102232.38
2018-11-03T04:26:50.699Z,102239.90
2018-11-03T04:29:19.856Z,102240.84
2018-11-03T04:31:48.971Z,102233.41
2018-11-03T04:34:18.045Z,102231.84
2018-11-03T04:36:47.066Z,102235.64
2018-11-03T04:39:16.147Z,102242.20
2018-11-03T04:41:45.286Z,102236.48
2018-11-03T04:44:15.485Z,102230.80
2018-11-03T04:46:44.995Z,102228.95
2018-11-03T04:49:14.031Z,102225.99
2018-11-03T04:51:43.063Z,102226.42
2018-11-03T04:54:12.085Z,102224.88
2018-11-03T04:56:41.073Z,102223.35
2018-11-03T04:59:10.113Z,102220.39
2018-11-03T05:01:39.284Z,102217.18
2018-11-03T05:04:08.389Z,102220.25
2018-11-03T05:06:37.476Z,102207.83
2018-11-03T05:09:08.678Z,102198.66
2018-11-03T05:11:37.949Z,102193.50
2018-11-03T05:14:07.794Z,102190.50
2018-11-03T05:16:36.984Z,102191.33
2018-11-03T05:19:06.374Z,102179.96
2018-11-03T05:21:35.434Z,102186.34
2018-11-03T05:24:04.528Z,102189.93
2018-11-03T05:26:33.522Z,102186.44
2018-11-03T05:29:02.592Z,102187.37
2018-11-03T05:31:31.617Z,102196.19
2018-11-03T05:34:00.634Z,102186.35
2018-11-03T05:36:29.803Z,102189.91
2018-11-03T05:38:58.977Z,102181.78
2018-11-03T05:41:27.990Z,102172.84
2018-11-03T05:43:56.979Z,102171.05
2018-11-03T05:46:26.188Z,102172.47
2018-11-03T05:48:55.202Z,102176.24
2018-11-03T05:51:24.263Z,102177.85
2018-11-03T05:53:53.373Z,102181.10
2018-11-03T05:56:22.600Z,102188.98
2018-11-03T05:58:51.785Z,102182.52
2018-11-03T06:01:20.789Z,102183.45
2018-11-03T06:03:49.810Z,102185.09
2018-11-03T06:06:18.919Z,102174.45
2018-11-03T06:08:47.986Z,102175.28
2018-11-03T06:11:16.995Z,102166.63
2018-11-03T06:13:45.994Z,102168.87
2018-11-03T06:16:16.325Z,102162.94
2018-11-03T06:18:45.363Z,102163.52
2018-11-03T06:21:14.456Z,102154.86
2018-11-03T06:23:43.567Z,102154.14
2018-11-03T06:26:12.582Z,102151.75
2018-11-03T06:28:41.621Z,102145.47
2018-11-03T06:31:10.674Z,102146.00
2018-11-03T06:33:39.716Z,102138.08
2018-11-03T06:36:08.815Z,102143.02
2018-11-03T06:38:37.895Z,102143.33
2018-11-03T06:41:07.080Z,102135.94
2018-11-03T06:43:36.087Z,102143.00
2018-11-03T06:46:05.444Z,102138.85
2018-11-03T06:48:34.533Z,102138.05
2018-11-03T06:51:03.678Z,102129.88
2018-11-03T06:53:32.801Z,102128.59
2018-11-03T06:56:02.076Z,102126.73
2018-11-03T06:58:31.289Z,102130.88
2018-11-03T07:01:00.524Z,102139.86
2018-11-03T07:03:29.626Z,102142.30
2018-11-03T07:05:58.733Z,102136.27
2018-11-03T07:08:27.802Z,102138.41
2018-11-03T07:10:56.834Z,102137.63
2018-11-03T07:13:25.948Z,102134.97
2018-11-03T07:15:54.949Z,102134.72
2018-11-03T07:18:24.083Z,102129.55
2018-11-03T07:20:53.094Z,102130.63
2018-11-03T07:23:22.187Z,102128.49
2018-11-03T07:25:51.290Z,102130.38
2018-11-03T07:28:20.321Z,102124.98
2018-11-03T07:30:49.485Z,102125.02
2018-11-03T07:33:18.493Z,102112.50
2018-11-03T07:35:47.559Z,102117.95
2018-11-03T07:38:16.585Z,102108.08
2018-11-03T07:40:45.832Z,102110.92
2018-11-03T07:43:14.984Z,102102.50
2018-11-03T07:45:44.040Z,102097.91
2018-11-03T07:48:13.172Z,102098.18
2018-11-03T07:50:42.182Z,102096.34
2018-11-03T07:53:11.261Z,102102.07
2018-11-03T07:55:40.309Z,102102.07
2018-11-03T07:58:09.325Z,102109.50
2018-11-03T08:00:38.418Z,102119.34
2018-11-03T08:03:07.337Z,102111.91
2018-11-03T08:05:38.090Z,102118.16
2018-11-03T08:08:07.341Z,102124.79
2018-11-03T08:10:36.359Z,102120.31
2018-11-03T08:13:05.714Z,102128.45
2018-11-03T08:15:34.920Z,102123.87
2018-11-03T08:18:03.963Z,102127.79
2018-11-03T08:20:33.099Z,102127.79
2018-11-03T08:23:02.124Z,102129.06
2018-11-03T08:25:31.220Z,102122.59
2018-11-03T08:28:00.343Z,102123.25
2018-11-03T08:30:29.434Z,102112.95
2018-11-03T08:32:58.480Z,102109.42
2018-11-03T08:35:27.464Z,102112.15
2018-11-03T08:37:56.447Z,102109.12
2018-11-03T08:40:25.624Z,102102.86
2018-11-03T08:42:54.717Z,102107.75
2018-11-03T08:45:23.869Z,102096.85
2018-11-03T08:47:53.314Z,102097.69
2018-11-03T08:50:22.649Z,102093.85
2018-11-03T08:52:51.758Z,102093.66
2018-11-03T08:55:20.888Z,102080.63
2018-11-03T08:57:49.932Z,102084.00
2018-11-03T09:00:19.799Z,102084.07
2018-11-03T09:02:48.813Z,102075.11
2018-11-03T09:05:19.084Z,102065.94
2018-11-03T09:07:48.997Z,102069.25
2018-11-03T09:10:18.194Z,102063.27
2018-11-03T09:12:47.294Z,102062.22
2018-11-03T09:15:17.011Z,102062.55
2018-11-03T09:20:19.691Z,102050.86
2018-11-03T09:22:48.797Z,102048.75
2018-11-03T09:25:17.879Z,102038.95
2018-11-03T09:27:47.263Z,102027.79
2018-11-03T09:30:19.585Z,102031.41
2018-11-03T09:32:48.724Z,102032.77
2018-11-03T09:35:19.002Z,102026.05
2018-11-03T09:37:48.127Z,102019.55
2018-11-03T09:40:18.669Z,102016.37
2018-11-03T09:42:48.519Z,102016.69
2018-11-03T09:45:17.724Z,102016.74
2018-11-03T09:47:46.866Z,102007.23
2018-11-03T09:50:16.453Z,101997.46
2018-11-03T09:52:46.598Z,101992.92
2018-11-03T09:55:18.157Z,101994.33
2018-11-03T09:57:47.485Z,101982.88
2018-11-03T10:00:18.790Z,101986.45
2018-11-03T10:02:48.082Z,101974.47
2018-11-03T10:05:17.462Z,101973.98
2018-11-03T10:07:46.553Z,101976.47
2018-11-03T10:10:17.081Z,101975.64
2018-11-03T10:12:46.407Z,101980.57
2018-11-03T10:15:17.684Z,101976.48
2018-11-03T10:17:47.725Z,101972.64
2018-11-03T10:20:16.773Z,101971.08
2018-11-03T10:22:45.896Z,101971.08
2018-11-03T10:25:16.360Z,101966.92
2018-11-03T10:27:45.849Z,101959.75
2018-11-03T10:30:15.933Z,101963.55
2018-11-03T10:32:45.469Z,101954.82
2018-11-03T10:35:15.033Z,101956.19
2018-11-03T10:37:44.863Z,101962.75
2018-11-03T10:40:16.668Z,101948.80
2018-11-03T10:42:46.898Z,101952.89
2018-11-03T10:45:17.719Z,101946.86
2018-11-03T10:47:47.207Z,101942.23
2018-11-03T10:50:18.190Z,101936.51
2018-11-03T10:52:51.451Z,101938.17
2018-11-03T10:55:21.370Z,101925.92
2018-11-03T10:57:51.049Z,101922.69
2018-11-03T11:00:26.360Z,101918.36
2018-11-03T11:03:00.648Z,101921.09
2018-11-03T11:05:35.610Z,101925.76
2018-11-03T11:08:10.338Z,101921.69
2018-11-03T11:10:49.993Z,101930.19
2018-11-03T11:13:22.899Z,101926.39
2018-11-03T11:15:54.623Z,101909.73
2018-11-03T11:18:24.132Z,101912.46
2018-11-03T11:20:53.209Z,101914.63
2018-11-03T11:23:22.865Z,101920.09
2018-11-03T11:25:52.043Z,101903.14
2018-11-03T11:28:21.182Z,101893.58
2018-11-03T11:30:50.318Z,101894.68
2018-11-03T11:33:19.508Z,101889.22
2018-11-03T11:35:48.632Z,101885.66
2018-11-03T11:38:17.732Z,101885.39
2018-11-03T11:40:46.910Z,101877.73
2018-11-03T11:43:16.278Z,101879.62
2018-11-03T11:45:45.424Z,101879.89
2018-11-03T11:48:15.184Z,101877.97
2018-11-03T11:50:44.903Z,101871.14
2018-11-03T11:53:14.397Z,101874.97
2018-11-03T11:55:47.250Z,101864.88
2018-11-03T11:58:16.374Z,101864.58
2018-11-03T12:00:45.541Z,101859.38
2018-11-03T12:03:14.723Z,101849.86
2018-11-03T12:05:44.931Z,101842.25
2018-11-03T12:08:15.344Z,101835.98
2018-11-03T12:10:44.475Z,101837.05
2018-11-03T12:13:13.593Z,101832.72
2018-11-03T12:15:42.740Z,101830.81
2018-11-03T12:18:11.900Z,101820.98
2018-11-03T12:20:41.083Z,101819.06
2018-11-03T12:23:10.565Z,101809.23
2018-11-03T12:25:40.303Z,101811.97
2018-11-03T12:28:17.379Z,101801.26
2018-11-03T12:30:46.539Z,101795.53
2018-11-03T12:33:15.541Z,101792.77
2018-11-03T12:35:44.624Z,101783.48
2018-11-03T12:38:14.741Z,101786.48
2018-11-03T12:40:44.176Z,101780.73
2018-11-03T12:43:13.315Z,101781.83
2018-11-03T12:45:42.380Z,101773.05
2018-11-03T12:48:11.475Z,101767.02
2018-11-03T12:50:40.638Z,101762.13
2018-11-03T12:53:11.052Z,101759.13
2018-11-03T12:55:40.668Z,101758.83
2018-11-03T12:58:13.229Z,101756.40
2018-11-03T13:00:42.492Z,101755.03
2018-11-03T13:03:12.396Z,101753.64
2018-11-03T13:05:41.593Z,101749.01
2018-11-03T13:08:11.016Z,101742.45
2018-11-03T13:10:40.222Z,101736.18
2018-11-03T13:13:09.219Z,101721.70
2018-11-03T13:15:38.467Z,101722.80
2018-11-03T13:18:07.547Z,101717.06
2018-11-03T13:20:36.565Z,101717.87
2018-11-03T13:23:05.991Z,101708.32
2018-11-03T13:25:35.426Z,101704.22
2018-11-03T13:28:04.429Z,101697.13
2018-11-03T13:30:34.407Z,101695.77
2018-11-03T13:33:03.430Z,101695.21
2018-11-03T13:35:33.123Z,101690.28
2018-11-03T13:38:02.159Z,101685.11
2018-11-03T13:40:31.169Z,101670.09
2018-11-03T13:43:00.296Z,101670.39
2018-11-03T13:45:29.523Z,101674.48
2018-11-03T13:47:58.667Z,101672.34
2018-11-03T13:50:27.719Z,101669.88
2018-11-03T13:52:57.636Z,101667.92
2018-11-03T13:55:39.293Z,101668.19
2018-11-03T13:58:08.652Z,101665.20
2018-11-03T14:00:37.687Z,101649.34
2018-11-03T14:03:06.842Z,101650.95
2018-11-03T14:05:35.831Z,101651.78
2018-11-03T14:08:04.880Z,101643.59
2018-11-03T14:10:34.262Z,101646.61
2018-11-03T14:13:03.375Z,101632.12
2018-11-03T14:15:32.981Z,101634.33
2018-11-03T14:18:02.236Z,101642.52
2018-11-03T14:20:31.305Z,101635.13
2018-11-03T14:23:00.428Z,101642.47
2018-11-03T14:25:29.851Z,101629.39
2018-11-03T14:27:58.988Z,101628.82
2018-11-03T14:30:28.458Z,101620.63
2018-11-03T14:32:57.542Z,101623.13
2018-11-03T14:35:27.188Z,101616.84
2018-11-03T14:38:04.417Z,101618.20
2018-11-03T14:40:51.162Z,101613.30
2018-11-03T14:43:21.326Z,101613.05
2018-11-03T14:45:50.556Z,101620.69
2018-11-03T14:48:19.678Z,101616.30
2018-11-03T14:50:48.811Z,101617.40
2018-11-03T14:53:18.106Z,101611.64
2018-11-03T14:55:50.424Z,101609.20
2018-11-03T14:58:24.713Z,101601.56
2018-11-03T15:03:35.790Z,101593.91
2018-11-03T15:06:04.938Z,101590.89
2018-11-03T15:08:34.318Z,101585.45
2018-11-03T15:11:05.477Z,101578.34
2018-11-03T15:13:39.249Z,101570.16
2018-11-03T15:16:10.034Z,101558.41
2018-11-03T15:18:39.170Z,101559.25
2018-11-03T15:21:08.651Z,101549.94
2018-11-03T15:23:37.738Z,101554.03
2018-11-03T15:26:08.199Z,101552.68
2018-11-03T15:28:37.311Z,101539.86
2018-11-03T15:31:06.897Z,101533.57
2018-11-03T15:33:35.926Z,101522.10
2018-11-03T15:36:04.955Z,101510.63
2018-11-03T15:38:34.759Z,101516.39
2018-11-03T15:41:03.812Z,101517.45
2018-11-03T15:43:32.898Z,101502.73
2018-11-03T15:46:01.874Z,101499.73
2018-11-03T15:48:30.933Z,101502.73
2018-11-03T15:51:00.152Z,101503.83
2018-11-03T15:53:29.340Z,101493.45
2018-11-03T15:55:58.418Z,101488.55
2018-11-03T15:58:28.183Z,101482.25
2018-11-03T16:00:58.161Z,101474.89
2018-11-03T16:03:27.178Z,101470.30
2018-11-03T16:05:56.270Z,101473.28
2018-11-03T16:08:25.351Z,101467.83
2018-11-03T16:11:14.813Z,101468.91
2018-11-03T16:13:44.077Z,101477.09
2018-11-03T16:16:13.633Z,101476.28
2018-11-03T16:18:42.643Z,101467.01
2018-11-03T16:21:11.913Z,101473.83
2018-11-03T16:23:41.039Z,101465.11
2018-11-03T16:26:10.393Z,101461.27
2018-11-03T16:28:40.014Z,101464.55
2018-11-03T16:31:09.011Z,101452.52
2018-11-03T16:33:38.338Z,101451.16
2018-11-03T16:36:07.465Z,101460.47
2018-11-03T16:38:46.281Z,101458.27
2018-11-03T16:41:15.352Z,101451.17
2018-11-03T16:43:44.376Z,101451.97
2018-11-03T16:46:13.623Z,101441.62
2018-11-03T16:48:42.768Z,101433.69
2018-11-03T16:51:12.701Z,101440.25
2018-11-03T16:53:41.832Z,101439.96
2018-11-03T16:56:11.255Z,101437.80
2018-11-03T16:58:40.640Z,101435.87
2018-11-03T17:01:09.703Z,101438.59
2018-11-03T17:03:38.937Z,101428.24
2018-11-03T17:06:08.017Z,101429.61
2018-11-03T17:08:37.074Z,101436.14
2018-11-03T17:11:06.230Z,101427.67
2018-11-03T17:13:35.400Z,101422.78
2018-11-03T17:16:04.509Z,101416.50
2018-11-03T17:18:34.263Z,101419.50
2018-11-03T17:21:03.372Z,101423.31
2018-11-03T17:23:32.430Z,101421.41
2018-11-03T17:26:01.541Z,101420.58
2018-11-03T17:28:30.678Z,101421.66
2018-11-03T17:30:59.813Z,101408.02
2018-11-03T17:33:28.909Z,101414.58
2018-11-03T17:35:57.999Z,101406.13
2018-11-03T17:38:27.121Z,101414.28
2018-11-03T17:40:56.176Z,101420.55
2018-11-03T17:43:25.209Z,101407.46
2018-11-03T17:45:54.372Z,101399.53
2018-11-03T17:48:23.444Z,101402.80
2018-11-03T17:50:52.507Z,101410.72
2018-11-03T17:53:21.699Z,101405.53
2018-11-03T17:55:50.817Z,101414.83
2018-11-03T17:58:19.949Z,101409.08
2018-11-03T18:00:49.096Z,101406.34
2018-11-03T18:03:19.075Z,101401.45
2018-11-03T18:05:56.899Z,101390.81
2018-11-03T18:08:25.968Z,101387.80
2018-11-03T18:10:54.988Z,101389.16
2018-11-03T18:13:23.978Z,101381.27
2018-11-03T18:15:53.077Z,101371.71
2018-11-03T18:18:22.101Z,101374.70
2018-11-03T18:20:51.731Z,101378.80
2018-11-03T18:23:20.930Z,101366.52
2018-11-03T18:25:49.920Z,101371.44
2018-11-03T18:28:18.991Z,101356.95
2018-11-03T18:30:48.038Z,101360.79
2018-11-03T18:33:17.227Z,101359.97
2018-11-03T18:35:46.144Z,101357.23
2018-11-03T18:38:15.326Z,101355.04
2018-11-03T18:40:44.423Z,101341.93
2018-11-03T18:43:13.524Z,101335.68
2018-11-03T18:45:42.540Z,101343.87
2018-11-03T18:48:12.579Z,101343.58
2018-11-03T18:50:41.693Z,101341.14
2018-11-03T18:53:10.760Z,101330.22
2018-11-03T18:55:39.892Z,101324.77
2018-11-03T18:58:08.960Z,101320.38
2018-11-03T19:00:38.289Z,101319.83
2018-11-03T19:03:07.367Z,101326.66
2018-11-03T19:05:37.081Z,101313.30
2018-11-03T19:08:06.703Z,101307.55
2018-11-03T19:10:35.746Z,101298.28
2018-11-03T19:13:04.853Z,101302.91
2018-11-03T19:15:34.427Z,101301.80
2018-11-03T19:18:03.439Z,101296.09
2018-11-03T19:20:32.544Z,101294.19
2018-11-03T19:23:01.783Z,101300.20
2018-11-03T19:25:31.824Z,101293.38
2018-11-03T19:28:00.888Z,101289.83
2018-11-03T19:30:30.056Z,101284.37
2018-11-03T19:32:59.105Z,101297.45
2018-11-03T19:35:28.221Z,101291.99
2018-11-03T19:37:57.327Z,101269.61
2018-11-03T19:40:26.463Z,101273.14
2018-11-03T19:42:56.378Z,101264.41
2018-11-03T19:45:25.467Z,101272.06
2018-11-03T19:47:54.665Z,101269.86
2018-11-03T19:50:23.740Z,101262.53
2018-11-03T19:52:52.859Z,101264.15
2018-11-03T19:55:21.923Z,101253.77
2018-11-03T19:57:51.026Z,101242.31
2018-11-03T20:00:20.296Z,101243.94
2018-11-03T20:02:50.372Z,101233.59
2018-11-03T20:05:19.489Z,101225.94
2018-11-03T20:07:48.555Z,101231.14
2018-11-03T20:10:18.527Z,101218.57
2018-11-03T20:12:47.579Z,101204.38
2018-11-03T20:15:16.666Z,101207.65
2018-11-03T20:17:45.768Z,101201.65
2018-11-03T20:20:16.620Z,101192.64
2018-11-03T20:22:45.895Z,101185.02
2018-11-03T20:25:15.024Z,101196.19
2018-11-03T20:27:44.193Z,101188.83
2018-11-03T20:30:14.709Z,101185.56
2018-11-03T20:32:44.636Z,101188.29
2018-11-03T20:35:13.844Z,101187.75
2018-11-03T20:37:42.940Z,101182.00
2018-11-03T20:40:13.505Z,101176.83
2018-11-03T20:42:42.537Z,101178.22
2018-11-03T20:45:12.099Z,101175.73
2018-11-03T20:47:42.393Z,101170.85
2018-11-03T20:50:13.243Z,101163.74
2018-11-03T20:52:42.233Z,101151.75
2018-11-03T20:55:12.249Z,101159.36
2018-11-03T20:57:41.632Z,101147.09
2018-11-03T21:00:22.625Z,101144.36
2018-11-03T21:03:04.590Z,101152.30
2018-11-03T21:05:33.690Z,101144.36
2018-11-03T21:08:02.851Z,101140.52
2018-11-03T21:10:31.864Z,101145.98
2018-11-03T21:13:01.040Z,101135.06
2018-11-03T21:15:30.157Z,101137.80
2018-11-03T21:18:00.143Z,101123.05
2018-11-03T21:20:29.266Z,101123.33
2018-11-03T21:22:58.341Z,101116.50
2018-11-03T21:25:28.284Z,101136.69
2018-11-03T21:27:57.383Z,101122.50
2018-11-03T21:30:26.420Z,101120.31
2018-11-03T21:32:55.737Z,101129.87
2018-11-03T21:35:24.762Z,101124.13
2018-11-03T21:37:53.912Z,101126.31
2018-11-03T21:40:23.004Z,101127.93
2018-11-03T21:42:52.223Z,101121.39
2018-11-03T21:45:21.404Z,101109.11
2018-11-03T21:47:50.505Z,101119.48
2018-11-03T21:50:19.646Z,101115.40
2018-11-03T21:52:48.767Z,101112.92
2018-11-03T21:55:18.449Z,101112.13
2018-11-03T21:57:47.575Z,101104.22
2018-11-03T22:00:16.738Z,101100.12
2018-11-03T22:02:45.862Z,101100.95
2018-11-03T22:08:13.264Z,101092.77
2018-11-03T22:10:42.447Z,101094.98
2018-11-03T22:13:11.516Z,101093.33
2018-11-03T22:15:40.559Z,101093.33
2018-11-03T22:18:09.585Z,101089.78
2018-11-03T22:20:38.644Z,101087.05
2018-11-03T22:23:07.694Z,101090.06
2018-11-03T22:25:36.807Z,101081.91
2018-11-03T22:28:06.228Z,101067.16
2018-11-03T22:30:35.334Z,101071.81
2018-11-03T22:33:04.408Z,101075.62
2018-11-03T22:35:33.467Z,101073.18
2018-11-03T22:38:02.601Z,101068.83
2018-11-03T22:40:31.640Z,101057.92
2018-11-03T22:43:00.788Z,101059.54
2018-11-03T22:45:29.840Z,101043.17
2018-11-03T22:47:58.918Z,101049.45
2018-11-03T22:50:28.016Z,101048.37
2018-11-03T22:52:57.176Z,101040.19
2018-11-03T22:55:27.259Z,101043.17
2018-11-03T22:57:56.320Z,101042.88
2018-11-03T23:00:25.388Z,101036.34
2018-11-03T23:02:54.410Z,101035.80
2018-11-03T23:05:23.438Z,101037.70
2018-11-03T23:07:52.583Z,101030.34
2018-11-03T23:10:21.604Z,101019.72
2018-11-03T23:12:54.355Z,101024.61
2018-11-03T23:15:26.412Z,101022.45
2018-11-03T23:17:58.201Z,101018.07
2018-11-03T23:20:48.125Z,101021.34
2018-11-03T23:23:35.948Z,101017.25
2018-11-03T23:26:25.762Z,101018.07
2018-11-03T23:29:13.571Z,101016.17
2018-11-03T23:32:01.906Z,101005.80
2018-11-03T23:34:31.466Z,101009.34
2018-11-03T23:37:17.175Z,101008.52
2018-11-03T23:40:08.023Z,101001.70
2018-11-03T23:42:56.707Z,100999.52
2018-11-03T23:45:39.442Z,100998.40
2018-11-03T23:48:28.038Z,100989.67
2018-11-03T23:51:16.399Z,100991.03
2018-11-03T23:53:56.543Z,100989.67
2018-11-03T23:56:33.353Z,100995.67
2018-11-03T23:59:19.360Z,100990.21
